Time;durP1;ratioP1;P1;durP2;ratioP2;P2;SDS_P1;SDS_P2;PMS_P1;PMS_P2;Temp;Humidity;BMP_temperature;BMP_pressure;BME280_temperature;BME280_humidity;BME280_pressure;Samples;Min_cycle;Max_cycle;Signal;HPM_P1;HPM_P2
2023/05/05 00:02:17;;;;;;;;;;;;;;;;;;5055490;28;19957;-61
2023/05/05 00:04:43;;;;;;;;;;;;;;;;;;5054903;28;20368;-61
2023/05/05 00:07:09;;;;;;;;;;;;;;;;;;5054664;28;19956;-61
2023/05/05 00:09:35;;;;;;;;;;;;;;;;;;5052627;28;19913;-61
2023/05/05 00:12:01;;;;;;;;;;;;;;;;;;5054236;28;19959;-61
2023/05/05 00:14:26;;;;;;;;;;;;;;;;;;5054537;28;20377;-61
2023/05/05 00:16:52;;;;;;;;;;;;;;;;;;5054660;28;20007;-61
2023/05/05 00:19:18;;;;;;;;;;;;;;;;;;5053894;28;19959;-62
2023/05/05 00:21:44;;;;;;;;;;;;;;;;;;5054030;28;19913;-61
2023/05/05 00:24:10;;;;;;;;;;;;;;;;;;5054433;28;20340;-61
2023/05/05 00:26:36;;;;;;;;;;;;;;;;;;5054400;28;19999;-61
2023/05/05 00:29:02;;;;;;;;;;;;;;;;;;5070670;28;19992;-61
2023/05/05 00:31:28;;;;;;;;;;;;;;;;;;5074107;28;20395;-61
2023/05/05 00:33:54;;;;;;;;;;;;;;;;;;5061859;28;20015;-61
2023/05/05 00:36:20;;;;;;;;;;;;;;;;;;5054587;28;20280;-61
2023/05/05 00:38:46;;;;;;;;;;;;;;;;;;5054180;28;20142;-61
2023/05/05 00:41:12;;;;;;;;;;;;;;;;;;5053855;28;20290;-61
2023/05/05 00:43:38;;;;;;;;;;;;;;;;;;5054057;28;19915;-61
2023/05/05 00:46:04;;;;;;;;;;;;;;;;;;5054138;28;19955;-61
2023/05/05 00:48:30;;;;;;;;;;;;;;;;;;5058075;28;19975;-61
2023/05/05 00:50:56;;;;;;;;;;;;;;;;;;5068224;28;19917;-61
2023/05/05 00:53:22;;;;;;;;;;;;;;;;;;5054471;28;19959;-61
2023/05/05 00:55:47;;;;;;;;;;;;;;;;;;5053750;28;19909;-61
2023/05/05 00:58:13;;;;;;;;;;;;;;;;;;5051503;28;19955;-61
2023/05/05 01:00:39;;;;;;;;;;;;;;;;;;5051629;28;19916;-61
2023/05/05 01:03:05;;;;;;;;;;;;;;;;;;5053643;28;20016;-61
2023/05/05 01:05:31;;;;;;;;;;;;;;;;;;5060229;28;19916;-61
2023/05/05 01:07:57;;;;;;;;;;;;;;;;;;5073731;28;19999;-61
2023/05/05 01:10:23;;;;;;;;;;;;;;;;;;5062860;28;20443;-61
2023/05/05 01:12:49;;;;;;;;;;;;;;;;;;5073345;28;19960;-61
2023/05/05 01:15:15;;;;;;;;;;;;;;;;;;5068829;28;20067;-61
2023/05/05 01:17:41;;;;;;;;;;;;;;;;;;5053453;28;20376;-61
2023/05/05 01:20:07;;;;;;;;;;;;;;;;;;5052728;28;20365;-61
2023/05/05 01:22:33;;;;;;;;;;;;;;;;;;5052523;28;20450;-61
2023/05/05 01:24:59;;;;;;;;;;;;;;;;;;5052472;28;20289;-61
2023/05/05 01:27:26;;;;;;;;;;;;;;;;;;5056623;28;19947;-61
2023/05/05 01:29:52;;;;;;;;;;;;;;;;;;5072980;28;19987;-61
2023/05/05 01:32:17;;;;;;;;;;;;;;;;;;5073056;28;20057;-61
2023/05/05 01:34:43;;;;;;;;;;;;;;;;;;5072963;28;19904;-61
2023/05/05 01:37:09;;;;;;;;;;;;;;;;;;5072970;28;20015;-61
2023/05/05 01:39:35;;;;;;;;;;;;;;;;;;5064495;28;19938;-61
2023/05/05 01:42:01;;;;;;;;;;;;;;;;;;5072004;28;20353;-61
2023/05/05 01:44:27;;;;;;;;;;;;;;;;;;5061799;28;20376;-61
2023/05/05 01:46:53;;;;;;;;;;;;;;;;;;5052605;28;19909;-61
2023/05/05 01:49:19;;;;;;;;;;;;;;;;;;5053107;28;19912;-61
2023/05/05 01:51:45;;;;;;;;;;;;;;;;;;5052692;28;20822;-61
2023/05/05 01:54:11;;;;;;;;;;;;;;;;;;5052751;28;19963;-61
2023/05/05 01:56:37;;;;;;;;;;;;;;;;;;5063329;28;19948;-61
2023/05/05 01:59:03;;;;;;;;;;;;;;;;;;5060380;28;19913;-61
2023/05/05 02:01:29;;;;;;;;;;;;;;;;;;5051023;28;19921;-61
2023/05/05 02:03:58;;;;;;;;;;;;;;;;;;5055043;28;19931;-61
2023/05/05 02:06:23;;;;;;;;;;;;;;;;;;5052432;28;19957;-61
2023/05/05 02:08:49;;;;;;;;;;;;;;;;;;5051958;28;20365;-61
2023/05/05 02:11:15;;;;;;;;;;;;;;;;;;5056323;28;19913;-61
2023/05/05 02:13:41;;;;;;;;;;;;;;;;;;5051057;28;19960;-61
2023/05/05 02:16:07;;;;;;;;;;;;;;;;;;5048661;28;20411;-61
2023/05/05 02:18:34;;;;;;;;;;;;;;;;;;5059862;28;20046;-61
2023/05/05 02:21:00;;;;;;;;;;;;;;;;;;5066371;28;19913;-61
2023/05/05 02:23:26;;;;;;;;;;;;;;;;;;5051500;28;19917;-61
2023/05/05 02:25:52;;;;;;;;;;;;;;;;;;5069841;28;20432;-61
2023/05/05 02:28:18;;;;;;;;;;;;;;;;;;5063652;28;19909;-61
2023/05/05 02:30:44;;;;;;;;;;;;;;;;;;5071442;28;20303;-61
2023/05/05 02:33:10;;;;;;;;;;;;;;;;;;5051201;28;19964;-61
2023/05/05 02:35:36;;;;;;;;;;;;;;;;;;5052661;28;19913;-61
2023/05/05 02:38:04;;;;;;;;;;;;;;;;;;5052233;28;19963;-62
2023/05/05 02:40:30;;;;;;;;;;;;;;;;;;5059615;28;19921;-61
2023/05/05 02:42:56;;;;;;;;;;;;;;;;;;5072296;28;20336;-61
2023/05/05 02:45:22;;;;;;;;;;;;;;;;;;5066130;28;19913;-61
2023/05/05 02:47:47;;;;;;;;;;;;;;;;;;5052100;28;19913;-61
2023/05/05 02:50:14;;;;;;;;;;;;;;;;;;5050891;28;19913;-61
2023/05/05 02:52:40;;;;;;;;;;;;;;;;;;5052599;28;19923;-61
2023/05/05 02:55:06;;;;;;;;;;;;;;;;;;5058711;28;20380;-61
2023/05/05 02:57:32;;;;;;;;;;;;;;;;;;5051911;28;19952;-61
2023/05/05 02:59:58;;;;;;;;;;;;;;;;;;5051412;28;20019;-61
2023/05/05 03:02:23;;;;;;;;;;;;;;;;;;5052164;28;19915;-61
2023/05/05 03:04:49;;;;;;;;;;;;;;;;;;5052017;28;19917;-61
2023/05/05 03:07:15;;;;;;;;;;;;;;;;;;5042622;28;20392;-61
2023/05/05 03:09:41;;;;;;;;;;;;;;;;;;5055953;28;19991;-61
2023/05/05 03:12:07;;;;;;;;;;;;;;;;;;5070398;28;19916;-61
2023/05/05 03:14:33;;;;;;;;;;;;;;;;;;5071571;28;19927;-61
2023/05/05 03:16:59;;;;;;;;;;;;;;;;;;5052631;28;19909;-61
2023/05/05 03:19:25;;;;;;;;;;;;;;;;;;5051986;28;20336;-61
2023/05/05 03:21:51;;;;;;;;;;;;;;;;;;5051292;28;19947;-61
2023/05/05 03:24:17;;;;;;;;;;;;;;;;;;5049916;28;19995;-61
2023/05/05 03:26:43;;;;;;;;;;;;;;;;;;5052366;28;19909;-61
2023/05/05 03:29:09;;;;;;;;;;;;;;;;;;5051525;28;20265;-61
2023/05/05 03:31:35;;;;;;;;;;;;;;;;;;5051383;28;19948;-61
2023/05/05 03:34:01;;;;;;;;;;;;;;;;;;5051493;28;19960;-61
2023/05/05 03:36:26;;;;;;;;;;;;;;;;;;5051859;28;20276;-61
2023/05/05 03:38:52;;;;;;;;;;;;;;;;;;5049879;28;20313;-61
2023/05/05 03:41:18;;;;;;;;;;;;;;;;;;5069419;28;19912;-61
2023/05/05 03:43:44;;;;;;;;;;;;;;;;;;5060548;28;19916;-61
2023/05/05 03:46:10;;;;;;;;;;;;;;;;;;5055180;28;19909;-62
2023/05/05 03:48:36;;;;;;;;;;;;;;;;;;5055338;28;19909;-61
2023/05/05 03:51:02;;;;;;;;;;;;;;;;;;5070023;28;19917;-61
2023/05/05 03:53:28;;;;;;;;;;;;;;;;;;5054407;28;20689;-61
2023/05/05 03:55:54;;;;;;;;;;;;;;;;;;5072557;28;19956;-61
2023/05/05 03:58:20;;;;;;;;;;;;;;;;;;5053698;28;20023;-61
2023/05/05 04:00:46;;;;;;;;;;;;;;;;;;5061512;28;20314;-61
2023/05/05 04:03:12;;;;;;;;;;;;;;;;;;5047364;28;19909;-61
2023/05/05 04:05:38;;;;;;;;;;;;;;;;;;5052098;28;19966;-61
2023/05/05 04:08:04;;;;;;;;;;;;;;;;;;5052885;28;19913;-61
2023/05/05 04:10:30;;;;;;;;;;;;;;;;;;5060661;28;20003;-61
2023/05/05 04:12:56;;;;;;;;;;;;;;;;;;5058754;28;19921;-61
2023/05/05 04:15:22;;;;;;;;;;;;;;;;;;5039251;28;19995;-61
2023/05/05 04:17:48;;;;;;;;;;;;;;;;;;5039194;28;20036;-61
2023/05/05 04:20:14;;;;;;;;;;;;;;;;;;5043520;28;19953;-61
2023/05/05 04:22:40;;;;;;;;;;;;;;;;;;5034639;28;20012;-62
2023/05/05 04:25:06;;;;;;;;;;;;;;;;;;5042722;28;19999;-61
2023/05/05 04:27:31;;;;;;;;;;;;;;;;;;5052839;28;20050;-61
2023/05/05 04:29:57;;;;;;;;;;;;;;;;;;5043861;28;20361;-61
2023/05/05 04:32:23;;;;;;;;;;;;;;;;;;5033922;28;19921;-61
2023/05/05 04:34:49;;;;;;;;;;;;;;;;;;5036659;28;20000;-61
2023/05/05 04:37:15;;;;;;;;;;;;;;;;;;5034334;28;20492;-61
2023/05/05 04:39:41;;;;;;;;;;;;;;;;;;5030489;28;19917;-61
2023/05/05 04:42:07;;;;;;;;;;;;;;;;;;5031178;28;19957;-61
2023/05/05 04:44:33;;;;;;;;;;;;;;;;;;5034281;28;19959;-61
2023/05/05 04:46:59;;;;;;;;;;;;;;;;;;5049407;28;20361;-61
2023/05/05 04:49:25;;;;;;;;;;;;;;;;;;5030643;28;19996;-61
2023/05/05 04:51:51;;;;;;;;;;;;;;;;;;5030094;28;19947;-61
2023/05/05 04:54:17;;;;;;;;;;;;;;;;;;5039859;28;19917;-61
2023/05/05 04:56:43;;;;;;;;;;;;;;;;;;5044686;28;19917;-61
2023/05/05 04:59:09;;;;;;;;;;;;;;;;;;5033608;28;20404;-61
2023/05/05 05:01:35;;;;;;;;;;;;;;;;;;5025788;28;19925;-61
2023/05/05 05:04:01;;;;;;;;;;;;;;;;;;5029826;28;20328;-61
2023/05/05 05:06:28;;;;;;;;;;;;;;;;;;5025087;28;19932;-61
2023/05/05 05:08:54;;;;;;;;;;;;;;;;;;5038680;28;19912;-61
2023/05/05 05:11:20;;;;;;;;;;;;;;;;;;5030431;28;19960;-61
2023/05/05 05:13:46;;;;;;;;;;;;;;;;;;5044464;28;19929;-61
2023/05/05 05:16:12;;;;;;;;;;;;;;;;;;5051173;28;19947;-62
2023/05/05 05:18:38;;;;;;;;;;;;;;;;;;5051258;28;20316;-61
2023/05/05 05:21:04;;;;;;;;;;;;;;;;;;5054731;28;20034;-61
2023/05/05 05:23:30;;;;;;;;;;;;;;;;;;5048242;28;19921;-61
2023/05/05 05:25:56;;;;;;;;;;;;;;;;;;5048919;28;20315;-61
2023/05/05 05:28:22;;;;;;;;;;;;;;;;;;5049240;28;19952;-61
2023/05/05 05:30:48;;;;;;;;;;;;;;;;;;5054552;28;20372;-61
2023/05/05 05:33:14;;;;;;;;;;;;;;;;;;5046193;28;19960;-61
2023/05/05 05:35:40;;;;;;;;;;;;;;;;;;5041258;28;19921;-61
2023/05/05 05:38:06;;;;;;;;;;;;;;;;;;5051520;28;19956;-61
2023/05/05 05:40:31;;;;;;;;;;;;;;;;;;5050788;28;20442;-62
2023/05/05 05:42:57;;;;;;;;;;;;;;;;;;5052151;28;19927;-61
2023/05/05 05:45:23;;;;;;;;;;;;;;;;;;5052383;28;19948;-61
2023/05/05 05:47:49;;;;;;;;;;;;;;;;;;5055595;28;20317;-61
2023/05/05 05:50:15;;;;;;;;;;;;;;;;;;5052526;28;20395;-61
2023/05/05 05:52:41;;;;;;;;;;;;;;;;;;5052487;28;19960;-61
2023/05/05 05:55:07;;;;;;;;;;;;;;;;;;5052298;28;19967;-61
2023/05/05 05:57:33;;;;;;;;;;;;;;;;;;5048984;28;19920;-61
2023/05/05 05:59:59;;;;;;;;;;;;;;;;;;5052789;28;19912;-61
2023/05/05 06:02:26;;;;;;;;;;;;;;;;;;5052859;28;19956;-61
2023/05/05 06:04:51;;;;;;;;;;;;;;;;;;5052456;28;19916;-61
2023/05/05 06:07:17;;;;;;;;;;;;;;;;;;5049304;28;19943;-61
2023/05/05 06:09:43;;;;;;;;;;;;;;;;;;5065702;28;19973;-61
2023/05/05 06:12:09;;;;;;;;;;;;;;;;;;5067623;28;19987;-61
2023/05/05 06:14:35;;;;;;;;;;;;;;;;;;5052403;28;20087;-61
2023/05/05 06:17:01;;;;;;;;;;;;;;;;;;5057311;28;20038;-61
2023/05/05 06:19:28;;;;;;;;;;;;;;;;;;5067426;28;20004;-61
2023/05/05 06:21:54;;;;;;;;;;;;;;;;;;5051805;28;19934;-61
2023/05/05 06:24:20;;;;;;;;;;;;;;;;;;5052473;28;20365;-61
2023/05/05 06:26:46;;;;;;;;;;;;;;;;;;5052067;28;19959;-61
2023/05/05 06:29:12;;;;;;;;;;;;;;;;;;5052514;28;20262;-61
2023/05/05 06:31:37;;;;;;;;;;;;;;;;;;5050180;28;19909;-61
2023/05/05 06:34:03;;;;;;;;;;;;;;;;;;5052551;28;19936;-61
2023/05/05 06:36:30;;;;;;;;;;;;;;;;;;5052101;28;19922;-61
2023/05/05 06:38:56;;;;;;;;;;;;;;;;;;5052081;28;19912;-61
2023/05/05 06:41:22;;;;;;;;;;;;;;;;;;5051380;28;19915;-61
2023/05/05 06:43:48;;;;;;;;;;;;;;;;;;5052191;28;20331;-61
2023/05/05 06:46:14;;;;;;;;;;;;;;;;;;5055013;28;19959;-61
2023/05/05 06:48:40;;;;;;;;;;;;;;;;;;5060317;28;19923;-60
2023/05/05 06:51:06;;;;;;;;;;;;;;;;;;5049260;28;20014;-61
2023/05/05 06:53:32;;;;;;;;;;;;;;;;;;5052168;28;20011;-61
2023/05/05 06:55:58;;;;;;;;;;;;;;;;;;5054754;28;20399;-61
2023/05/05 06:58:24;;;;;;;;;;;;;;;;;;5051835;28;20360;-61
2023/05/05 07:00:50;;;;;;;;;;;;;;;;;;5051218;28;19916;-61
2023/05/05 07:03:15;;;;;;;;;;;;;;;;;;5051316;28;19916;-61
2023/05/05 07:05:42;;;;;;;;;;;;;;;;;;5050141;28;20428;-61
2023/05/05 07:08:08;;;;;;;;;;;;;;;;;;5052788;28;19913;-61
2023/05/05 07:10:33;;;;;;;;;;;;;;;;;;5051504;28;20319;-61
2023/05/05 07:12:59;;;;;;;;;;;;;;;;;;5059383;28;20426;-61
2023/05/05 07:15:25;;;;;;;;;;;;;;;;;;5051891;28;19909;-61
2023/05/05 07:17:51;;;;;;;;;;;;;;;;;;5053037;28;19998;-61
2023/05/05 07:20:17;;;;;;;;;;;;;;;;;;5052367;28;20377;-61
2023/05/05 07:22:43;;;;;;;;;;;;;;;;;;5052773;28;19921;-61
2023/05/05 07:25:09;;;;;;;;;;;;;;;;;;5054641;28;20368;-61
2023/05/05 07:27:36;;;;;;;;;;;;;;;;;;5057860;28;19912;-61
2023/05/05 07:30:02;;;;;;;;;;;;;;;;;;5062494;28;19912;-61
2023/05/05 07:32:27;;;;;;;;;;;;;;;;;;5060002;28;19967;-61
2023/05/05 07:34:53;;;;;;;;;;;;;;;;;;5055450;28;19920;-61
2023/05/05 07:37:19;;;;;;;;;;;;;;;;;;5054881;28;19909;-61
2023/05/05 07:39:48;;;;;;;;;;;;;;;;;;5053067;28;20431;-61
2023/05/05 07:42:14;;;;;;;;;;;;;;;;;;5055711;28;19987;-61
2023/05/05 07:44:40;;;;;;;;;;;;;;;;;;5054887;28;19913;-61
2023/05/05 07:47:06;;;;;;;;;;;;;;;;;;5054623;28;20265;-61
2023/05/05 07:49:32;;;;;;;;;;;;;;;;;;5054833;28;19949;-61
2023/05/05 07:51:58;;;;;;;;;;;;;;;;;;5054795;28;20008;-61
2023/05/05 07:54:24;;;;;;;;;;;;;;;;;;5054806;28;19919;-62
2023/05/05 07:56:50;;;;;;;;;;;;;;;;;;5054864;28;19913;-61
2023/05/05 07:59:15;;;;;;;;;;;;;;;;;;5054263;28;19995;-61
2023/05/05 08:01:41;;;;;;;;;;;;;;;;;;5054615;28;19909;-61
2023/05/05 08:04:07;;;;;;;;;;;;;;;;;;5054581;28;20016;-61
2023/05/05 08:06:33;;;;;;;;;;;;;;;;;;5055012;28;19919;-62
2023/05/05 08:08:59;;;;;;;;;;;;;;;;;;5054485;28;19952;-61
2023/05/05 08:11:25;;;;;;;;;;;;;;;;;;5057824;28;19915;-61
2023/05/05 08:13:51;;;;;;;;;;;;;;;;;;5063497;28;19964;-62
2023/05/05 08:16:17;;;;;;;;;;;;;;;;;;5051108;28;19959;-61
2023/05/05 08:18:43;;;;;;;;;;;;;;;;;;5054376;28;19916;-61
2023/05/05 08:21:09;;;;;;;;;;;;;;;;;;5053767;28;19913;-61
2023/05/05 08:23:35;;;;;;;;;;;;;;;;;;5052274;28;19923;-61
2023/05/05 08:26:01;;;;;;;;;;;;;;;;;;5056446;28;19948;-61
2023/05/05 08:28:27;;;;;;;;;;;;;;;;;;5054712;28;20011;-61
2023/05/05 08:30:53;;;;;;;;;;;;;;;;;;5050897;28;20039;-60
2023/05/05 08:33:18;;;;;;;;;;;;;;;;;;5050503;28;19967;-61
2023/05/05 08:35:44;;;;;;;;;;;;;;;;;;5054392;28;20261;-61
2023/05/05 08:38:10;;;;;;;;;;;;;;;;;;5054195;28;19913;-61
2023/05/05 08:40:36;;;;;;;;;;;;;;;;;;5053814;28;19976;-61
2023/05/05 08:43:02;;;;;;;;;;;;;;;;;;5052039;28;20036;-62
2023/05/05 08:45:28;;;;;;;;;;;;;;;;;;5053907;28;19916;-61
2023/05/05 08:47:54;;;;;;;;;;;;;;;;;;5051375;28;19920;-61
2023/05/05 08:50:20;;;;;;;;;;;;;;;;;;5057794;28;19912;-61
2023/05/05 08:52:46;;;;;;;;;;;;;;;;;;5065491;28;19964;-59
2023/05/05 08:55:12;;;;;;;;;;;;;;;;;;5073512;28;19915;-61
2023/05/05 08:57:38;;;;;;;;;;;;;;;;;;5052407;28;19924;-61
2023/05/05 09:00:04;;;;;;;;;;;;;;;;;;5053555;28;19909;-61
2023/05/05 09:02:30;;;;;;;;;;;;;;;;;;5053549;28;19996;-62
2023/05/05 09:04:56;;;;;;;;;;;;;;;;;;5053908;28;19915;-61
2023/05/05 09:07:22;;;;;;;;;;;;;;;;;;5053284;28;19994;-61
2023/05/05 09:09:48;;;;;;;;;;;;;;;;;;5052409;28;19915;-61
2023/05/05 09:12:16;;;;;;;;;;;;;;;;;;5051956;28;19917;-61
2023/05/05 09:14:42;;;;;;;;;;;;;;;;;;5053507;28;20292;-61
2023/05/05 09:17:08;;;;;;;;;;;;;;;;;;5053214;28;19913;-61
2023/05/05 09:19:34;;;;;;;;;;;;;;;;;;5053444;28;19991;-61
2023/05/05 09:22:00;;;;;;;;;;;;;;;;;;5053090;28;19916;-61
2023/05/05 09:24:26;;;;;;;;;;;;;;;;;;5051561;28;19924;-61
2023/05/05 09:26:54;;;;;;;;;;;;;;;;;;5051037;28;19913;-61
2023/05/05 09:29:20;;;;;;;;;;;;;;;;;;5050184;28;19917;-61
2023/05/05 09:31:46;;;;;;;;;;;;;;;;;;5052560;28;19951;-61
2023/05/05 09:34:12;;;;;;;;;;;;;;;;;;5052493;28;19975;-62
2023/05/05 09:36:38;;;;;;;;;;;;;;;;;;5053022;28;19908;-61
2023/05/05 09:39:04;;;;;;;;;;;;;;;;;;5053132;28;19909;-61
2023/05/05 09:41:31;;;;;;;;;;;;;;;;;;5052395;28;19912;-62
2023/05/05 09:43:56;;;;;;;;;;;;;;;;;;5052893;28;19908;-61
2023/05/05 09:46:22;;;;;;;;;;;;;;;;;;5051671;28;19967;-61
2023/05/05 09:48:48;;;;;;;;;;;;;;;;;;5048633;28;20458;-61
2023/05/05 09:51:14;;;;;;;;;;;;;;;;;;5045815;28;19917;-61
2023/05/05 09:53:41;;;;;;;;;;;;;;;;;;5051323;28;19982;-61
2023/05/05 09:56:07;;;;;;;;;;;;;;;;;;5052559;28;19916;-61
2023/05/05 09:58:32;;;;;;;;;;;;;;;;;;5052646;28;19909;-61
2023/05/05 10:00:58;;;;;;;;;;;;;;;;;;5052300;28;19913;-61
2023/05/05 10:03:24;;;;;;;;;;;;;;;;;;5050011;28;20016;-61
2023/05/05 10:05:50;;;;;;;;;;;;;;;;;;5052825;28;19912;-61
2023/05/05 10:08:16;;;;;;;;;;;;;;;;;;5034623;28;19909;-62
2023/05/05 10:10:42;;;;;;;;;;;;;;;;;;5052202;28;19978;-62
2023/05/05 10:13:08;;;;;;;;;;;;;;;;;;5068601;28;19927;-61
2023/05/05 10:15:34;;;;;;;;;;;;;;;;;;5072836;28;19967;-62
2023/05/05 10:18:00;;;;;;;;;;;;;;;;;;5064378;28;19996;-61
2023/05/05 10:20:26;;;;;;;;;;;;;;;;;;5052337;28;19916;-61
2023/05/05 10:22:52;;;;;;;;;;;;;;;;;;5052415;28;19909;-61
2023/05/05 10:25:18;;;;;;;;;;;;;;;;;;5051527;28;19996;-61
2023/05/05 10:27:44;;;;;;;;;;;;;;;;;;5052810;28;19909;-61
2023/05/05 10:30:10;;;;;;;;;;;;;;;;;;5051543;28;19917;-61
2023/05/05 10:32:36;;;;;;;;;;;;;;;;;;5050836;28;19932;-62
2023/05/05 10:35:02;;;;;;;;;;;;;;;;;;5052748;28;19909;-61
2023/05/05 10:37:28;;;;;;;;;;;;;;;;;;5051955;28;20277;-62
2023/05/05 10:39:55;;;;;;;;;;;;;;;;;;5051939;28;20281;-62
2023/05/05 10:42:21;;;;;;;;;;;;;;;;;;5051843;28;19939;-61
2023/05/05 10:44:47;;;;;;;;;;;;;;;;;;5052215;28;19913;-61
2023/05/05 10:47:13;;;;;;;;;;;;;;;;;;5052142;28;19915;-61
2023/05/05 10:49:40;;;;;;;;;;;;;;;;;;5050046;28;19920;-61
2023/05/05 10:52:06;;;;;;;;;;;;;;;;;;5051168;28;20300;-61
2023/05/05 10:54:32;;;;;;;;;;;;;;;;;;5056164;28;19970;-61
2023/05/05 10:57:00;;;;;;;;;;;;;;;;;;5053210;28;19913;-61
2023/05/05 10:59:25;;;;;;;;;;;;;;;;;;5056186;28;19913;-61
2023/05/05 11:01:52;;;;;;;;;;;;;;;;;;5052904;28;20019;-61
2023/05/05 11:04:18;;;;;;;;;;;;;;;;;;5056029;28;19908;-61
2023/05/05 11:06:44;;;;;;;;;;;;;;;;;;5056021;28;19963;-61
2023/05/05 11:09:10;;;;;;;;;;;;;;;;;;5056162;28;20418;-61
2023/05/05 11:11:36;;;;;;;;;;;;;;;;;;5051121;28;19959;-61
2023/05/05 11:14:02;;;;;;;;;;;;;;;;;;5055672;28;20273;-61
2023/05/05 11:16:28;;;;;;;;;;;;;;;;;;5055955;28;19913;-61
2023/05/05 11:18:54;;;;;;;;;;;;;;;;;;5055739;28;19971;-61
2023/05/05 11:21:20;;;;;;;;;;;;;;;;;;5055164;28;19913;-61
2023/05/05 11:23:46;;;;;;;;;;;;;;;;;;5055773;28;20016;-61
2023/05/05 11:26:12;;;;;;;;;;;;;;;;;;5069015;28;20372;-61
2023/05/05 11:28:37;;;;;;;;;;;;;;;;;;5068850;28;19956;-61
2023/05/05 11:31:03;;;;;;;;;;;;;;;;;;5075239;28;19932;-61
2023/05/05 11:33:29;;;;;;;;;;;;;;;;;;5068544;28;19960;-61
2023/05/05 11:35:55;;;;;;;;;;;;;;;;;;5055191;28;19917;-61
2023/05/05 11:38:21;;;;;;;;;;;;;;;;;;5066888;28;19914;-61
2023/05/05 11:40:47;;;;;;;;;;;;;;;;;;5074826;28;19920;-61
2023/05/05 11:43:13;;;;;;;;;;;;;;;;;;5075268;28;19915;-59
2023/05/05 11:45:39;;;;;;;;;;;;;;;;;;5069824;28;19912;-61
2023/05/05 11:48:05;;;;;;;;;;;;;;;;;;5055127;28;19959;-61
2023/05/05 11:50:31;;;;;;;;;;;;;;;;;;5058336;28;19951;-61
2023/05/05 11:52:57;;;;;;;;;;;;;;;;;;5051942;28;20311;-61
2023/05/05 11:55:23;;;;;;;;;;;;;;;;;;5061315;28;19917;-61
2023/05/05 11:57:49;;;;;;;;;;;;;;;;;;5054919;28;19909;-61
2023/05/05 12:00:15;;;;;;;;;;;;;;;;;;5058903;28;19912;-60
2023/05/05 12:02:41;;;;;;;;;;;;;;;;;;5048703;28;19924;-60
2023/05/05 12:05:07;;;;;;;;;;;;;;;;;;5058043;28;20720;-60
2023/05/05 12:07:33;;;;;;;;;;;;;;;;;;5056378;28;19996;-59
2023/05/05 12:09:59;;;;;;;;;;;;;;;;;;5061059;28;19935;-60
2023/05/05 12:12:24;;;;;;;;;;;;;;;;;;5055023;28;19913;-60
2023/05/05 12:14:51;;;;;;;;;;;;;;;;;;5053963;28;19979;-60
2023/05/05 12:17:17;;;;;;;;;;;;;;;;;;5056369;28;20007;-60
2023/05/05 12:19:43;;;;;;;;;;;;;;;;;;5052918;28;19920;-59
2023/05/05 12:22:09;;;;;;;;;;;;;;;;;;5054215;28;19913;-60
2023/05/05 12:24:35;;;;;;;;;;;;;;;;;;5054190;28;20002;-60
2023/05/05 12:27:01;;;;;;;;;;;;;;;;;;5053919;28;19995;-62
2023/05/05 12:29:27;;;;;;;;;;;;;;;;;;5054930;28;20035;-60
2023/05/05 12:31:53;;;;;;;;;;;;;;;;;;5053936;28;20339;-60
2023/05/05 12:34:19;;;;;;;;;;;;;;;;;;5053795;28;19955;-60
2023/05/05 12:36:45;;;;;;;;;;;;;;;;;;5053061;28;19995;-60
2023/05/05 12:39:11;;;;;;;;;;;;;;;;;;5052606;28;19955;-60
2023/05/05 12:41:37;;;;;;;;;;;;;;;;;;5053332;28;19944;-60
2023/05/05 12:44:03;;;;;;;;;;;;;;;;;;5055950;28;19955;-60
2023/05/05 12:46:29;;;;;;;;;;;;;;;;;;5061949;28;19917;-60
2023/05/05 12:48:55;;;;;;;;;;;;;;;;;;5054755;28;19920;-60
2023/05/05 12:51:25;;;;;;;;;;;;;;;;;;5059874;28;20373;-61
2023/05/05 12:53:51;;;;;;;;;;;;;;;;;;5042417;28;19917;-60
2023/05/05 12:56:17;;;;;;;;;;;;;;;;;;5053509;28;19917;-60
2023/05/05 12:58:44;;;;;;;;;;;;;;;;;;5053335;28;19909;-60
2023/05/05 13:01:10;;;;;;;;;;;;;;;;;;5068080;28;19955;-60
2023/05/05 13:03:36;;;;;;;;;;;;;;;;;;5073688;28;19958;-60
2023/05/05 13:06:02;;;;;;;;;;;;;;;;;;5053501;28;20322;-64
2023/05/05 13:08:28;;;;;;;;;;;;;;;;;;5051676;28;19916;-60
2023/05/05 13:10:54;;;;;;;;;;;;;;;;;;5065364;28;19987;-62
2023/05/05 13:13:20;;;;;;;;;;;;;;;;;;5054269;28;20351;-62
2023/05/05 13:15:46;;;;;;;;;;;;;;;;;;5048312;28;19975;-60
2023/05/05 13:18:12;;;;;;;;;;;;;;;;;;5044872;28;19969;-60
2023/05/05 13:20:38;;;;;;;;;;;;;;;;;;5049321;28;19966;-60
2023/05/05 13:23:03;;;;;;;;;;;;;;;;;;5053413;28;20397;-60
2023/05/05 13:25:29;;;;;;;;;;;;;;;;;;5052767;28;19912;-60
2023/05/05 13:27:55;;;;;;;;;;;;;;;;;;5052169;28;19913;-60
2023/05/05 13:30:21;;;;;;;;;;;;;;;;;;5051881;28;19963;-60
2023/05/05 13:32:47;;;;;;;;;;;;;;;;;;5059056;28;20019;-59
2023/05/05 13:35:13;;;;;;;;;;;;;;;;;;5050861;28;20012;-59
2023/05/05 13:37:40;;;;;;;;;;;;;;;;;;5051129;28;20412;-60
2023/05/05 13:40:06;;;;;;;;;;;;;;;;;;5053275;28;19912;-60
2023/05/05 13:42:32;;;;;;;;;;;;;;;;;;5051598;28;19963;-60
2023/05/05 13:44:57;;;;;;;;;;;;;;;;;;5053667;28;19917;-60
2023/05/05 13:47:24;;;;;;;;;;;;;;;;;;5051817;28;20027;-60
2023/05/05 13:49:50;;;;;;;;;;;;;;;;;;5052992;28;20283;-60
2023/05/05 13:52:16;;;;;;;;;;;;;;;;;;5051749;28;19956;-60
2023/05/05 13:54:42;;;;;;;;;;;;;;;;;;5045852;28;20274;-60
2023/05/05 13:57:09;;;;;;;;;;;;;;;;;;5041027;28;19927;-60
2023/05/05 13:59:35;;;;;;;;;;;;;;;;;;5052068;28;19959;-60
2023/05/05 14:02:01;;;;;;;;;;;;;;;;;;5043879;28;19961;-59
2023/05/05 14:04:27;;;;;;;;;;;;;;;;;;5044874;28;19959;-59
2023/05/05 14:06:53;;;;;;;;;;;;;;;;;;5052169;28;19913;-60
2023/05/05 14:09:19;;;;;;;;;;;;;;;;;;5052478;28;20378;-59
2023/05/05 14:11:46;;;;;;;;;;;;;;;;;;5044783;28;20291;-60
2023/05/05 14:14:11;;;;;;;;;;;;;;;;;;5051855;28;19920;-60
2023/05/05 14:16:37;;;;;;;;;;;;;;;;;;5051797;28;20317;-60
2023/05/05 14:19:03;;;;;;;;;;;;;;;;;;5049531;28;20007;-59
2023/05/05 14:21:31;;;;;;;;;;;;;;;;;;5051832;28;20002;-60
2023/05/05 14:23:57;;;;;;;;;;;;;;;;;;5051878;28;19908;-59
2023/05/05 14:26:23;;;;;;;;;;;;;;;;;;5051827;28;20352;-61
2023/05/05 14:28:49;;;;;;;;;;;;;;;;;;5051960;28;20014;-61
2023/05/05 14:31:15;;;;;;;;;;;;;;;;;;5051723;28;19959;-61
2023/05/05 14:33:40;;;;;;;;;;;;;;;;;;5052096;28;19920;-60
2023/05/05 14:36:06;;;;;;;;;;;;;;;;;;5060484;28;19913;-60
2023/05/05 14:38:32;;;;;;;;;;;;;;;;;;5051123;28;19963;-60
2023/05/05 14:40:58;;;;;;;;;;;;;;;;;;5052393;28;19912;-59
2023/05/05 14:43:24;;;;;;;;;;;;;;;;;;5056067;28;20332;-60
2023/05/05 14:45:50;;;;;;;;;;;;;;;;;;5051142;28;19920;-62
2023/05/05 14:48:20;;;;;;;;;;;;;;;;;;5046352;28;19913;-61
2023/05/05 14:50:46;;;;;;;;;;;;;;;;;;5051278;28;19935;-61
2023/05/05 14:53:12;;;;;;;;;;;;;;;;;;5053384;28;19916;-61
2023/05/05 14:55:38;;;;;;;;;;;;;;;;;;5046740;28;19959;-61
2023/05/05 14:58:04;;;;;;;;;;;;;;;;;;5049226;28;19916;-61
2023/05/05 15:00:30;;;;;;;;;;;;;;;;;;5068978;28;19917;-62
2023/05/05 15:02:56;;;;;;;;;;;;;;;;;;5060559;28;19920;-61
2023/05/05 15:05:22;;;;;;;;;;;;;;;;;;5051266;28;19952;-62
2023/05/05 15:07:48;;;;;;;;;;;;;;;;;;5051768;28;20026;-61
2023/05/05 15:10:13;;;;;;;;;;;;;;;;;;5064610;28;20427;-61
2023/05/05 15:12:41;;;;;;;;;;;;;;;;;;5056390;28;19983;-61
2023/05/05 15:15:07;;;;;;;;;;;;;;;;;;5046087;28;19913;-61
2023/05/05 15:17:33;;;;;;;;;;;;;;;;;;5049067;28;20288;-61
2023/05/05 15:19:59;;;;;;;;;;;;;;;;;;5059622;28;19922;-61
2023/05/05 15:22:25;;;;;;;;;;;;;;;;;;5053696;28;19956;-61
2023/05/05 15:24:51;;;;;;;;;;;;;;;;;;5050429;28;20388;-61
2023/05/05 15:27:17;;;;;;;;;;;;;;;;;;5049477;28;20334;-61
2023/05/05 15:29:45;;;;;;;;;;;;;;;;;;5060916;28;21385;-61
2023/05/05 15:32:11;;;;;;;;;;;;;;;;;;5051132;28;20047;-61
2023/05/05 15:34:36;;;;;;;;;;;;;;;;;;5058533;28;19968;-61
2023/05/05 15:37:02;;;;;;;;;;;;;;;;;;5051617;28;19913;-61
2023/05/05 15:39:28;;;;;;;;;;;;;;;;;;5052572;28;20443;-61
2023/05/05 15:41:54;;;;;;;;;;;;;;;;;;5056425;28;20452;-61
2023/05/05 15:44:20;;;;;;;;;;;;;;;;;;5051865;28;19963;-61
2023/05/05 15:46:46;;;;;;;;;;;;;;;;;;5048603;28;19982;-61
2023/05/05 15:49:12;;;;;;;;;;;;;;;;;;5054641;28;20293;-61
2023/05/05 15:51:38;;;;;;;;;;;;;;;;;;5051815;28;20007;-61
2023/05/05 15:54:04;;;;;;;;;;;;;;;;;;5054737;28;20007;-61
2023/05/05 15:56:30;;;;;;;;;;;;;;;;;;5057251;28;19917;-61
2023/05/05 15:58:56;;;;;;;;;;;;;;;;;;5055160;28;19967;-61
2023/05/05 16:01:22;;;;;;;;;;;;;;;;;;5054247;28;19954;-61
2023/05/05 16:03:48;;;;;;;;;;;;;;;;;;5054954;28;20308;-61
2023/05/05 16:06:14;;;;;;;;;;;;;;;;;;5051982;28;19963;-61
2023/05/05 16:08:39;;;;;;;;;;;;;;;;;;5044778;28;19963;-61
2023/05/05 16:11:05;;;;;;;;;;;;;;;;;;5049873;28;20396;-61
2023/05/05 16:13:31;;;;;;;;;;;;;;;;;;5055213;28;20074;-61
2023/05/05 16:15:57;;;;;;;;;;;;;;;;;;5057202;28;19947;-61
2023/05/05 16:18:23;;;;;;;;;;;;;;;;;;5059984;28;20291;-60
2023/05/05 16:20:49;;;;;;;;;;;;;;;;;;5053768;28;20288;-61
2023/05/05 16:23:15;;;;;;;;;;;;;;;;;;5054094;28;20016;-61
2023/05/05 16:25:41;;;;;;;;;;;;;;;;;;5051498;28;19921;-61
2023/05/05 16:28:07;;;;;;;;;;;;;;;;;;5056808;28;19909;-61
2023/05/05 16:30:32;;;;;;;;;;;;;;;;;;5052698;28;20013;-61
2023/05/05 16:32:58;;;;;;;;;;;;;;;;;;5054125;28;19986;-60
2023/05/05 16:35:24;;;;;;;;;;;;;;;;;;5051119;28;19996;-61
2023/05/05 16:37:51;;;;;;;;;;;;;;;;;;5053332;28;20091;-61